createdAt,value
2018-05-26T00:00:39.527Z,19.80
2018-05-26T00:03:06.512Z,19.80
2018-05-26T00:05:32.725Z,19.70
2018-05-26T00:07:58.942Z,19.80
2018-05-26T00:10:25.186Z,19.70
2018-05-26T00:12:51.449Z,19.70
2018-05-26T00:15:17.695Z,19.70
2018-05-26T00:17:44.016Z,19.70
2018-05-26T00:20:10.192Z,19.60
2018-05-26T00:22:36.453Z,19.60
2018-05-26T00:25:02.634Z,19.60
2018-05-26T00:27:29.584Z,19.60
2018-05-26T00:29:56.523Z,19.40
2018-05-26T00:32:23.513Z,19.50
2018-05-26T00:34:49.728Z,19.50
2018-05-26T00:37:15.968Z,19.60
2018-05-26T00:39:42.158Z,19.60
2018-05-26T00:42:09.134Z,19.60
2018-05-26T00:44:35.376Z,19.50
2018-05-26T00:47:01.625Z,19.60
2018-05-26T00:49:27.833Z,19.30
2018-05-26T00:51:54.011Z,19.30
2018-05-26T00:54:20.961Z,19.10
2018-05-26T00:56:47.146Z,19.00
2018-05-26T00:59:13.425Z,19.10
2018-05-26T01:01:39.692Z,19.20
2018-05-26T01:04:05.929Z,19.10
2018-05-26T01:06:32.150Z,19.10
2018-05-26T01:08:58.398Z,19.10
2018-05-26T01:11:24.747Z,19.00
2018-05-26T01:13:51.749Z,18.70
2018-05-26T01:16:17.995Z,18.70
2018-05-26T01:18:44.175Z,18.80
2018-05-26T01:21:10.396Z,18.80
2018-05-26T01:23:36.621Z,18.90
2018-05-26T01:26:02.901Z,18.90
2018-05-26T01:28:29.182Z,18.80
2018-05-26T01:30:55.421Z,18.70
2018-05-26T01:33:21.665Z,18.80
2018-05-26T01:35:47.898Z,18.80
2018-05-26T01:38:14.108Z,18.80
2018-05-26T01:40:40.322Z,18.70
2018-05-26T01:43:06.506Z,18.80
2018-05-26T01:45:32.728Z,18.80
2018-05-26T01:47:58.969Z,18.80
2018-05-26T01:50:25.240Z,18.80
2018-05-26T01:52:51.479Z,18.80
2018-05-26T01:55:17.667Z,18.90
2018-05-26T01:57:44.641Z,18.80
2018-05-26T02:00:10.899Z,18.80
2018-05-26T02:02:37.130Z,18.80
2018-05-26T02:05:03.321Z,18.70
2018-05-26T02:07:29.519Z,18.50
2018-05-26T02:09:56.460Z,18.40
2018-05-26T02:12:22.698Z,18.30
2018-05-26T02:14:49.714Z,18.20
2018-05-26T02:17:15.959Z,18.20
2018-05-26T02:19:42.151Z,18.30
2018-05-26T02:22:08.369Z,18.30
2018-05-26T02:24:34.622Z,18.30
2018-05-26T02:27:00.899Z,18.40
2018-05-26T02:29:27.176Z,18.30
2018-05-26T02:31:53.413Z,18.30
2018-05-26T02:34:19.703Z,18.30
2018-05-26T02:36:45.938Z,18.30
2018-05-26T02:39:12.166Z,18.30
2018-05-26T02:41:38.395Z,18.10
2018-05-26T02:44:04.611Z,17.60
2018-05-26T02:46:30.850Z,17.70
2018-05-26T02:48:57.112Z,17.70
2018-05-26T02:51:23.345Z,17.90
2018-05-26T02:53:49.560Z,18.00
2018-05-26T02:56:15.772Z,18.00
2018-05-26T02:58:41.981Z,18.10
2018-05-26T03:01:08.279Z,18.10
2018-05-26T03:03:35.223Z,18.00
2018-05-26T03:06:08.246Z,18.00
2018-05-26T03:08:40.594Z,18.00
2018-05-26T03:11:13.545Z,18.00
2018-05-26T03:13:45.882Z,17.90
2018-05-26T03:19:19.039Z,18.00
2018-05-26T03:21:45.217Z,18.00
2018-05-26T03:24:11.437Z,17.90
2018-05-26T03:26:37.681Z,17.90
2018-05-26T03:29:03.895Z,17.90
2018-05-26T03:31:30.171Z,17.80
2018-05-26T03:33:56.386Z,17.80
2018-05-26T03:36:22.683Z,17.80
2018-05-26T03:38:49.624Z,17.80
2018-05-26T03:41:16.076Z,17.70
2018-05-26T03:43:42.297Z,17.60
2018-05-26T03:46:08.527Z,17.60
2018-05-26T03:48:34.757Z,17.60
2018-05-26T03:51:00.959Z,17.60
2018-05-26T03:53:27.189Z,17.60
2018-05-26T03:56:05.600Z,17.60
2018-05-26T03:58:44.015Z,17.60
2018-05-26T04:01:10.182Z,17.50
2018-05-26T04:03:36.440Z,17.50
2018-05-26T04:06:02.709Z,17.50
2018-05-26T04:08:28.932Z,17.50
2018-05-26T04:10:55.129Z,17.60
2018-05-26T04:13:22.156Z,17.40
2018-05-26T04:15:48.406Z,17.40
2018-05-26T04:18:15.332Z,17.40
2018-05-26T04:20:41.516Z,17.40
2018-05-26T04:23:07.702Z,17.40
2018-05-26T04:25:33.938Z,17.40
2018-05-26T04:28:00.894Z,17.40
2018-05-26T04:30:27.127Z,17.40
2018-05-26T04:32:53.370Z,17.40
2018-05-26T04:35:19.622Z,17.40
2018-05-26T04:37:45.868Z,17.40
2018-05-26T04:40:12.079Z,17.40
2018-05-26T04:42:38.298Z,17.40
2018-05-26T04:45:04.572Z,17.40
2018-05-26T04:47:30.849Z,17.40
2018-05-26T04:49:57.116Z,17.40
2018-05-26T04:52:23.347Z,17.40
2018-05-26T04:54:49.560Z,17.40
2018-05-26T04:57:15.826Z,17.40
2018-05-26T04:59:42.808Z,17.40
2018-05-26T05:02:09.024Z,17.40
2018-05-26T05:04:35.278Z,17.40
2018-05-26T05:07:01.464Z,17.40
2018-05-26T05:09:28.424Z,17.50
2018-05-26T05:11:54.726Z,17.40
2018-05-26T05:14:21.022Z,17.50
2018-05-26T05:16:47.266Z,17.50
2018-05-26T05:19:13.476Z,17.40
2018-05-26T05:21:39.734Z,17.30
2018-05-26T05:24:05.944Z,17.30
2018-05-26T05:26:32.182Z,17.30
2018-05-26T05:28:58.401Z,17.30
2018-05-26T05:31:24.624Z,17.30
2018-05-26T05:33:50.847Z,17.30
2018-05-26T05:36:17.069Z,17.30
2018-05-26T05:38:44.340Z,17.10
2018-05-26T05:41:10.568Z,17.10
2018-05-26T05:43:36.787Z,17.00
2018-05-26T05:46:03.060Z,17.00
2018-05-26T05:48:29.278Z,16.90
2018-05-26T05:50:56.249Z,16.90
2018-05-26T05:53:22.522Z,16.80
2018-05-26T05:55:48.745Z,16.90
2018-05-26T05:58:17.015Z,17.00
2018-05-26T06:00:43.226Z,17.10
2018-05-26T06:03:09.444Z,17.10
2018-05-26T06:05:38.207Z,17.30
2018-05-26T06:08:07.130Z,17.40
2018-05-26T06:10:33.374Z,17.30
2018-05-26T06:13:14.240Z,17.40
2018-05-26T06:15:40.495Z,17.50
2018-05-26T06:18:06.703Z,17.50
2018-05-26T06:20:32.943Z,17.50
2018-05-26T06:22:59.184Z,17.50
2018-05-26T06:25:25.445Z,17.50
2018-05-26T06:27:51.649Z,17.50
2018-05-26T06:30:17.873Z,17.60
2018-05-26T06:32:44.835Z,17.60
2018-05-26T06:35:11.026Z,17.60
2018-05-26T06:37:37.278Z,17.60
2018-05-26T06:40:03.529Z,17.60
2018-05-26T06:42:29.730Z,17.70
2018-05-26T06:44:55.943Z,17.70
2018-05-26T06:47:22.149Z,17.80
2018-05-26T06:49:48.394Z,17.90
2018-05-26T06:52:14.612Z,17.90
2018-05-26T06:54:40.797Z,17.90
2018-05-26T06:57:07.044Z,18.00
2018-05-26T06:59:33.283Z,18.00
2018-05-26T07:01:59.527Z,18.10
2018-05-26T07:04:32.859Z,18.10
2018-05-26T07:06:59.109Z,18.20
2018-05-26T07:09:25.328Z,18.20
2018-05-26T07:11:51.576Z,18.30
2018-05-26T07:14:17.843Z,18.30
2018-05-26T07:16:44.141Z,18.30
2018-05-26T07:19:10.357Z,18.40
2018-05-26T07:21:36.598Z,18.50
2018-05-26T07:24:02.867Z,18.50
2018-05-26T07:26:29.154Z,18.50
2018-05-26T07:28:55.430Z,18.60
2018-05-26T07:31:21.639Z,18.60
2018-05-26T07:33:47.912Z,18.70
2018-05-26T07:36:14.126Z,18.80
2018-05-26T07:38:41.111Z,18.80
2018-05-26T07:41:08.402Z,18.80
2018-05-26T07:43:34.665Z,18.90
2018-05-26T07:46:01.619Z,19.00
2018-05-26T07:48:27.984Z,18.90
2018-05-26T07:50:54.204Z,19.10
2018-05-26T07:53:20.475Z,19.10
2018-05-26T07:55:58.358Z,19.20
2018-05-26T07:58:24.633Z,19.30
2018-05-26T08:00:51.609Z,19.40
2018-05-26T08:03:17.832Z,19.40
2018-05-26T08:05:44.081Z,19.40
2018-05-26T08:08:10.315Z,19.50
2018-05-26T08:10:36.564Z,19.50
2018-05-26T08:13:21.984Z,19.60
2018-05-26T08:15:48.210Z,19.60
2018-05-26T08:18:14.453Z,19.70
2018-05-26T08:20:40.735Z,19.70
2018-05-26T08:23:06.973Z,19.80
2018-05-26T08:25:33.941Z,19.90
2018-05-26T08:28:00.194Z,19.90
2018-05-26T08:30:26.460Z,20.00
2018-05-26T08:38:57.203Z,20.20
2018-05-26T08:41:23.403Z,20.30
2018-05-26T08:43:49.620Z,20.30
2018-05-26T08:46:15.908Z,20.40
2018-05-26T08:48:42.158Z,20.40
2018-05-26T08:51:09.198Z,20.70
2018-05-26T08:53:35.426Z,20.60
2018-05-26T08:56:01.737Z,20.70
2018-05-26T09:07:08.991Z,21.10
2018-05-26T09:09:35.237Z,21.30
2018-05-26T09:12:02.215Z,21.40
2018-05-26T09:14:28.428Z,21.40
2018-05-26T09:16:54.693Z,21.50
2018-05-26T09:19:20.950Z,21.50
2018-05-26T09:21:47.237Z,21.60
2018-05-26T09:24:13.500Z,21.70
2018-05-26T09:26:40.658Z,21.90
2018-05-26T09:29:06.870Z,21.90
2018-05-26T09:31:33.106Z,22.00
2018-05-26T09:33:59.306Z,22.10
2018-05-26T09:36:25.534Z,22.20
2018-05-26T09:38:51.780Z,22.30
2018-05-26T09:41:18.001Z,22.40
2018-05-26T09:43:44.335Z,22.50
2018-05-26T09:46:10.580Z,22.50
2018-05-26T09:48:36.822Z,22.70
2018-05-26T09:51:03.037Z,22.70
2018-05-26T09:53:30.011Z,22.80
2018-05-26T09:56:07.424Z,22.80
2018-05-26T09:58:36.471Z,22.80
2018-05-26T10:01:02.733Z,22.90
2018-05-26T10:03:28.974Z,23.10
2018-05-26T10:05:55.192Z,23.20
2018-05-26T10:08:35.769Z,23.30
2018-05-26T10:11:01.989Z,23.40
2018-05-26T10:13:28.243Z,23.50
2018-05-26T10:15:54.455Z,23.50
2018-05-26T10:18:20.681Z,23.50
2018-05-26T10:20:46.943Z,23.60
2018-05-26T10:23:13.187Z,23.70
2018-05-26T10:40:06.206Z,24.40
2018-05-26T10:42:32.448Z,24.50
2018-05-26T10:44:58.676Z,24.60
2018-05-26T10:47:24.962Z,24.60
2018-05-26T10:49:51.211Z,24.70
2018-05-26T10:52:17.494Z,24.70
2018-05-26T10:54:43.733Z,24.70
2018-05-26T10:57:10.694Z,24.80
2018-05-26T10:59:36.905Z,24.80
2018-05-26T11:02:03.912Z,24.90
2018-05-26T11:04:30.163Z,24.80
2018-05-26T11:06:56.353Z,25.00
2018-05-26T11:09:29.351Z,25.00
2018-05-26T11:11:55.626Z,25.10
2018-05-26T11:14:22.562Z,25.20
2018-05-26T11:16:49.521Z,25.30
2018-05-26T11:19:16.514Z,25.30
2018-05-26T11:21:42.694Z,25.30
2018-05-26T11:24:09.697Z,25.40
2018-05-26T11:26:35.853Z,25.30
2018-05-26T11:29:02.800Z,25.50
2018-05-26T11:31:29.738Z,25.70
2018-05-26T11:33:55.951Z,25.60
2018-05-26T11:36:22.191Z,25.70
2018-05-26T11:38:52.509Z,25.80
2018-05-26T11:41:19.441Z,25.90
2018-05-26T11:43:45.644Z,25.80
2018-05-26T11:46:11.894Z,25.90
2018-05-26T11:48:38.130Z,25.90
2018-05-26T11:51:04.316Z,26.00
2018-05-26T11:53:30.575Z,26.10
2018-05-26T11:55:56.825Z,26.20
2018-05-26T11:58:41.432Z,26.30
2018-05-26T12:01:07.671Z,26.30
2018-05-26T12:03:33.908Z,26.30
2018-05-26T12:06:00.146Z,26.40
2018-05-26T12:08:26.354Z,26.60
2018-05-26T12:10:52.705Z,26.70
2018-05-26T12:13:26.363Z,26.60
2018-05-26T12:15:52.594Z,26.50
2018-05-26T12:18:18.804Z,26.70
2018-05-26T12:20:45.754Z,26.90
2018-05-26T12:23:12.725Z,26.90
2018-05-26T12:25:51.901Z,26.90
2018-05-26T12:28:18.091Z,26.90
2018-05-26T12:30:44.349Z,26.90
2018-05-26T12:33:10.591Z,26.90
2018-05-26T12:35:36.833Z,26.90
2018-05-26T12:38:03.838Z,27.00
2018-05-26T12:40:30.089Z,26.90
2018-05-26T12:42:57.152Z,27.10
2018-05-26T12:45:24.159Z,27.20
2018-05-26T12:47:50.406Z,27.10
2018-05-26T12:50:17.404Z,27.30
2018-05-26T12:52:43.720Z,27.20
2018-05-26T12:55:10.054Z,27.30
2018-05-26T12:57:36.313Z,27.30
2018-05-26T13:00:02.640Z,27.40
2018-05-26T13:02:28.902Z,27.40
2018-05-26T13:04:55.182Z,27.40
2018-05-26T13:07:22.329Z,27.40
2018-05-26T13:09:48.771Z,27.40
2018-05-26T13:12:15.047Z,27.30
2018-05-26T13:14:41.358Z,27.30
2018-05-26T13:17:08.696Z,27.20
2018-05-26T13:19:34.925Z,27.20
2018-05-26T13:22:01.186Z,27.20
2018-05-26T13:24:27.378Z,27.10
2018-05-26T13:26:53.602Z,27.20
2018-05-26T13:29:19.803Z,27.10
2018-05-26T13:31:46.071Z,27.10
2018-05-26T13:34:34.681Z,27.10
2018-05-26T13:37:00.909Z,27.10
2018-05-26T13:39:27.119Z,27.00
2018-05-26T13:41:54.130Z,26.90
2018-05-26T13:44:20.336Z,26.80
2018-05-26T13:46:46.532Z,26.80
2018-05-26T13:49:13.510Z,26.90
2018-05-26T13:51:39.813Z,26.80
2018-05-26T13:54:06.102Z,26.90
2018-05-26T13:56:32.450Z,26.80
2018-05-26T13:59:03.689Z,26.90
2018-05-26T14:01:29.982Z,26.80
2018-05-26T14:03:56.225Z,26.80
2018-05-26T14:06:22.476Z,26.70
2018-05-26T14:08:48.744Z,26.60
2018-05-26T14:11:14.978Z,26.60
2018-05-26T14:13:41.202Z,26.60
2018-05-26T14:16:07.461Z,26.60
2018-05-26T14:18:33.707Z,26.60
2018-05-26T14:20:59.895Z,26.50
2018-05-26T14:23:26.118Z,26.50
2018-05-26T14:25:52.328Z,26.60
2018-05-26T14:28:19.296Z,26.60
2018-05-26T14:30:45.512Z,26.60
2018-05-26T14:33:11.723Z,26.60
2018-05-26T14:35:37.975Z,26.60
2018-05-26T14:38:04.233Z,26.70
2018-05-26T14:40:30.490Z,26.70
2018-05-26T14:42:56.771Z,26.70
2018-05-26T14:45:40.074Z,26.80
2018-05-26T14:48:06.378Z,26.70
2018-05-26T14:50:33.354Z,26.90
2018-05-26T14:52:59.625Z,26.80
2018-05-26T14:55:25.866Z,26.90
2018-05-26T14:57:52.130Z,26.90
2018-05-26T15:00:19.147Z,27.00
2018-05-26T15:02:45.409Z,26.90
2018-05-26T15:05:12.385Z,26.90
2018-05-26T15:07:38.583Z,26.90
2018-05-26T15:10:12.131Z,26.90
2018-05-26T15:12:38.370Z,26.90
2018-05-26T15:15:04.638Z,26.90
2018-05-26T15:17:31.626Z,27.00
2018-05-26T15:19:57.820Z,26.90
2018-05-26T15:22:24.108Z,26.90
2018-05-26T15:24:50.372Z,26.90
2018-05-26T15:27:17.361Z,26.90
2018-05-26T15:29:43.611Z,26.90
2018-05-26T15:32:09.858Z,26.90
2018-05-26T15:34:36.848Z,26.90
2018-05-26T15:37:03.070Z,26.90
2018-05-26T15:39:29.372Z,26.90
2018-05-26T15:42:00.285Z,26.80
2018-05-26T15:44:26.512Z,26.80
2018-05-26T15:46:52.756Z,26.90
2018-05-26T15:49:19.720Z,26.80
2018-05-26T15:51:45.967Z,26.80
2018-05-26T15:54:12.249Z,26.80
2018-05-26T15:56:39.224Z,26.70
2018-05-26T15:59:05.510Z,26.70
2018-05-26T16:01:31.745Z,26.80
2018-05-26T16:03:57.978Z,26.80
2018-05-26T16:06:25.011Z,26.90
2018-05-26T16:08:51.299Z,26.80
2018-05-26T16:11:17.535Z,26.90
2018-05-26T16:13:43.756Z,27.00
2018-05-26T16:16:10.115Z,27.00
2018-05-26T16:18:36.295Z,27.00
2018-05-26T16:21:02.488Z,26.90
2018-05-26T16:23:28.753Z,26.90
2018-05-26T16:34:55.703Z,27.00
2018-05-26T16:37:21.907Z,27.10
2018-05-26T16:39:48.108Z,27.10
2018-05-26T16:42:14.357Z,27.00
2018-05-26T16:44:40.654Z,27.10
2018-05-26T16:52:54.785Z,27.00
2018-05-26T16:55:21.022Z,27.10
2018-05-26T16:57:47.263Z,27.10
2018-05-26T17:00:13.535Z,27.10
2018-05-26T17:02:39.833Z,27.10
2018-05-26T17:05:06.163Z,27.20
2018-05-26T17:07:33.197Z,27.10
2018-05-26T17:09:59.448Z,27.10
2018-05-26T17:12:25.811Z,27.10
2018-05-26T17:14:52.081Z,27.10
2018-05-26T17:17:18.385Z,27.00
2018-05-26T17:19:44.643Z,27.00
2018-05-26T17:22:10.845Z,27.00
2018-05-26T17:24:37.065Z,26.90
2018-05-26T17:27:03.373Z,26.90
2018-05-26T17:29:30.328Z,26.90
2018-05-26T17:31:56.599Z,26.90
2018-05-26T17:34:22.865Z,26.90
2018-05-26T17:36:49.859Z,26.80
2018-05-26T17:39:16.129Z,26.80
2018-05-26T17:41:42.391Z,26.80
2018-05-26T17:44:08.690Z,26.70
2018-05-26T17:46:35.143Z,26.60
2018-05-26T17:49:01.404Z,26.50
2018-05-26T17:51:27.665Z,26.60
2018-05-26T17:53:53.928Z,26.50
2018-05-26T17:56:20.952Z,26.50
2018-05-26T17:59:14.657Z,26.50
2018-05-26T18:01:40.951Z,26.50
2018-05-26T18:04:07.904Z,26.50
2018-05-26T18:06:34.930Z,26.60
2018-05-26T18:09:01.330Z,26.50
2018-05-26T18:11:27.749Z,26.60
2018-05-26T18:14:20.076Z,26.60
2018-05-26T18:16:46.380Z,26.60
2018-05-26T18:19:12.629Z,26.60
2018-05-26T18:21:39.612Z,26.50
2018-05-26T18:24:05.878Z,26.50
2018-05-26T18:26:32.083Z,26.60
2018-05-26T18:28:58.320Z,26.60
2018-05-26T18:31:24.512Z,26.60
2018-05-26T18:33:50.785Z,26.60
2018-05-26T18:36:17.012Z,26.60
2018-05-26T18:38:50.100Z,26.50
2018-05-26T18:41:16.316Z,26.40
2018-05-26T18:43:42.552Z,26.30
2018-05-26T18:46:08.744Z,26.10
2018-05-26T18:48:34.991Z,26.10
2018-05-26T18:51:01.251Z,26.20
2018-05-26T18:53:27.521Z,26.30
2018-05-26T18:55:53.763Z,26.20
2018-05-26T18:58:19.965Z,26.20
2018-05-26T19:00:46.149Z,26.20
2018-05-26T19:03:12.382Z,26.20
2018-05-26T19:05:38.611Z,26.10
2018-05-26T19:08:04.826Z,26.10
2018-05-26T19:10:31.088Z,26.10
2018-05-26T19:12:57.321Z,26.00
2018-05-26T19:15:24.285Z,25.90
2018-05-26T19:17:50.491Z,25.80
2018-05-26T19:20:17.439Z,25.80
2018-05-26T19:22:44.462Z,25.70
2018-05-26T19:25:30.290Z,25.70
2018-05-26T19:27:56.534Z,25.60
2018-05-26T19:30:22.777Z,25.60
2018-05-26T19:32:48.997Z,25.50
2018-05-26T19:35:15.211Z,25.50
2018-05-26T19:40:34.329Z,25.40
2018-05-26T19:43:00.557Z,25.30
2018-05-26T19:45:26.815Z,25.30
2018-05-26T19:47:53.833Z,25.20
2018-05-26T19:50:20.131Z,25.10
2018-05-26T19:52:46.383Z,25.20
2018-05-26T19:55:13.426Z,24.90
2018-05-26T19:57:39.690Z,24.80
2018-05-26T20:00:06.705Z,24.80
2018-05-26T20:05:43.826Z,24.80
2018-05-26T20:08:10.067Z,24.70
2018-05-26T20:10:36.328Z,24.70
2018-05-26T20:13:02.558Z,24.70
2018-05-26T20:15:28.776Z,24.70
2018-05-26T20:17:55.753Z,24.60
2018-05-26T20:20:21.953Z,24.60
2018-05-26T20:22:48.200Z,24.30
2018-05-26T20:25:14.450Z,24.20
2018-05-26T20:27:40.787Z,24.00
2018-05-26T20:30:07.063Z,23.80
2018-05-26T20:32:34.070Z,23.90
2018-05-26T20:35:00.395Z,23.90
2018-05-26T20:37:26.685Z,23.70
2018-05-26T20:39:52.995Z,23.80
2018-05-26T20:42:20.007Z,23.90
2018-05-26T20:44:46.206Z,23.80
2018-05-26T20:47:12.424Z,23.60
2018-05-26T20:49:38.666Z,23.70
2018-05-26T20:52:04.868Z,23.60
2018-05-26T20:54:31.095Z,23.40
2018-05-26T20:56:57.327Z,23.60
2018-05-26T20:59:24.299Z,23.60
2018-05-26T21:01:50.530Z,23.50
2018-05-26T21:04:16.786Z,23.60
2018-05-26T21:06:43.014Z,23.70
2018-05-26T21:09:09.270Z,23.60
2018-05-26T21:11:35.546Z,23.50
2018-05-26T21:14:01.855Z,23.30
2018-05-26T21:16:28.097Z,23.40
2018-05-26T21:18:54.304Z,23.40
2018-05-26T21:21:20.596Z,23.40
2018-05-26T21:23:46.818Z,23.30
2018-05-26T21:26:13.034Z,23.40
2018-05-26T21:28:39.264Z,23.30
2018-05-26T21:31:05.484Z,23.30
2018-05-26T21:33:31.729Z,23.30
2018-05-26T21:35:58.018Z,23.30
2018-05-26T21:38:24.301Z,23.30
2018-05-26T21:40:51.327Z,23.20
2018-05-26T21:43:17.592Z,23.20
2018-05-26T21:45:43.859Z,23.20
2018-05-26T21:48:10.099Z,23.10
2018-05-26T21:50:36.432Z,23.10
2018-05-26T21:53:02.728Z,23.10
2018-05-26T21:55:28.946Z,23.10
2018-05-26T21:57:55.236Z,23.10
2018-05-26T22:00:21.470Z,23.00
2018-05-26T22:02:47.667Z,23.00
2018-05-26T22:05:13.880Z,23.00
2018-05-26T22:07:40.138Z,23.00
2018-05-26T22:10:06.371Z,22.90
2018-05-26T22:12:32.641Z,22.80
2018-05-26T22:14:58.838Z,22.90
2018-05-26T22:17:25.872Z,22.80
2018-05-26T22:19:52.135Z,22.70
2018-05-26T22:22:19.134Z,22.60
2018-05-26T22:24:45.379Z,22.50
2018-05-26T22:27:19.032Z,22.50
2018-05-26T22:29:45.263Z,22.50
2018-05-26T22:32:11.468Z,22.50
2018-05-26T22:34:38.442Z,22.30
2018-05-26T22:37:04.811Z,22.30
2018-05-26T22:39:31.086Z,22.40
2018-05-26T22:41:57.346Z,22.30
2018-05-26T22:44:23.590Z,22.30
2018-05-26T22:46:51.886Z,22.20
2018-05-26T22:49:18.130Z,22.20
2018-05-26T22:51:45.068Z,22.00
2018-05-26T22:54:29.056Z,21.80
2018-05-26T22:56:55.271Z,21.70
2018-05-26T22:59:21.506Z,21.90
2018-05-26T23:01:47.778Z,21.90
2018-05-26T23:04:13.976Z,22.00
2018-05-26T23:06:40.228Z,22.00
2018-05-26T23:15:09.445Z,21.90
2018-05-26T23:17:35.654Z,22.00
2018-05-26T23:20:01.898Z,22.00
2018-05-26T23:22:28.139Z,22.00
2018-05-26T23:24:54.379Z,22.00
2018-05-26T23:27:20.607Z,22.10
2018-05-26T23:29:46.858Z,22.00
2018-05-26T23:32:13.849Z,21.80
2018-05-26T23:34:40.100Z,21.80
2018-05-26T23:37:06.397Z,21.70
2018-05-26T23:39:32.689Z,21.70
2018-05-26T23:41:58.921Z,21.60
2018-05-26T23:44:25.892Z,21.60
2018-05-26T23:46:52.107Z,21.60
2018-05-26T23:49:19.059Z,21.70
2018-05-26T23:51:45.336Z,21.60
2018-05-26T23:54:11.520Z,21.70
2018-05-26T23:56:37.794Z,21.50
